Asheville Regional Airport Asheville US
ICAO: KAVL
IATA: AVL
Category: Large
Scheduled Services: Yes

Elevation: 2165 ft
TransAlt. 18000 ft.

Airport Communications:
APP/DEP:124.65
ATIS:120.2
CTAF:121.1
GND:121.9
TWR:121.1
UNICOM:122.95

KAVL Zoom In..

If you have problems with the map follow the link
https://www.worldairports.se/pages/airport.php?
ICAO=KAVL

Runways:

(A) RW 16 length 8001 ft width 150 ft
ILS 110.90 / hdg 164

(B) RW 34 length 8001 ft width 150 ft
ILS 110.50 / hdg 344

Location; KAVL
Day. 22 / Time. 16.54 Zulu
* Altimeter: 30.29
* Temperature: 09° c. 48.2°f.
* Wind from: 170° Speed 04 kn.
Dewpoint: 08° c.
Visibility: 8 Statute Miles.
Clouds: Overcast 700 ft.
Conditions: Light Rain.

KAVL 221654Z 17004KT 8SM -RA OVC007 09/08 A3029 RMK AO2 SLP250 P0002 T00940083


Wind From 170°
Speed 04 kn.

 
 
jpsmedia.com for Web Design worldairports.se 2019   terms of use